| time (UTC) | temp F | wind direction | speed MPH | gust MPH | rain 1hr in | rain 24hr in | rain mn in | humidity % | barometer mb |
| 20260507184549 | 56 | 276 | 4.0 | 10.0 | 0.00 | 1.28 | 1.28 | 86 | 1003.3 |
| 20260507183054 | 54 | 276 | 3.0 | 10.0 | 0.00 | 1.28 | 1.28 | 89 | 1003.1 |
| 20260507181547 | 54 | 259 | 3.0 | 11.0 | 0.00 | 1.28 | 1.28 | 91 | 1003.4 |
| 20260507180046 | 54 | 234 | 3.0 | 9.0 | 0.00 | 1.28 | 1.28 | 93 | 1003.4 |
| 20260507174603 | 52 | 275 | 2.0 | 6.0 | 0.00 | 1.28 | 1.28 | 95 | 1003.3 |
| 20260507173059 | 51 | 51 | 3.0 | 10.0 | 0.00 | 1.28 | 1.28 | 96 | 1002.7 |
| 20260507171612 | 50 | 354 | 4.0 | 8.0 | 0.00 | 1.28 | 1.28 | 96 | 1003.6 |
| 20260507170057 | 49 | 298 | 3.0 | 10.0 | 0.00 | 1.28 | 1.28 | 96 | 1003.9 |
| 20260507164605 | 49 | 274 | 1.0 | 8.0 | 0.00 | 1.28 | 1.28 | 96 | 1003.7 |
| 20260507163051 | 48 | 356 | 5.0 | 11.0 | 0.01 | 1.28 | 1.28 | 96 | 1004.1 |
| 20260507161550 | 48 | 348 | 1.0 | 7.0 | 0.03 | 1.28 | 1.28 | 96 | 1003.1 |
| 20260507160051 | 48 | 334 | 2.0 | 10.0 | 0.03 | 1.27 | 1.27 | 96 | 1004.3 |
| 20260507154555 | 48 | 263 | 4.0 | 10.0 | 0.05 | 1.27 | 1.27 | 96 | 1004.5 |
| 20260507153052 | 48 | 227 | 1.0 | 8.0 | 0.07 | 1.26 | 1.26 | 96 | 1003.7 |
| 20260507151552 | 48 | 177 | 2.0 | 6.0 | 0.07 | 1.25 | 1.25 | 96 | 1003.6 |
| 20260507150047 | 48 | 143 | 1.0 | 4.0 | 0.08 | 1.23 | 1.23 | 96 | 1003.8 |
| 20260507144553 | 48 | 225 | 1.0 | 6.0 | 0.08 | 1.22 | 1.22 | 96 | 1004.2 |
| 20260507143055 | 48 | 138 | 3.0 | 5.0 | 0.09 | 1.19 | 1.19 | 96 | 1004.3 |
| 20260507141556 | 48 | 125 | 2.0 | 5.0 | 0.16 | 1.18 | 1.18 | 96 | 1004.5 |
| 20260507140051 | 47 | 130 | 1.0 | 3.0 | 0.20 | 1.14 | 1.14 | 96 | 1004.2 |
| 20260507134555 | 47 | 0 | 1.0 | 3.0 | 0.29 | 1.13 | 1.13 | 96 | 1004.3 |
| 20260507133050 | 47 | 208 | 1.0 | 3.0 | 0.33 | 1.10 | 1.10 | 96 | 1005.0 |
| 20260507131546 | 47 | 0 | 1.0 | 3.0 | 0.28 | 1.00 | 1.00 | 96 | 1005.1 |
| 20260507130051 | 47 | 46 | 1.0 | 6.0 | 0.25 | 0.94 | 0.94 | 96 | 1004.7 |
| 20260507124555 | 47 | 239 | 4.0 | 9.0 | 0.15 | 0.84 | 0.84 | 96 | 1005.3 |
| 20260507123051 | 47 | 229 | 2.0 | 9.0 | 0.07 | 0.76 | 0.76 | 96 | 1005.7 |
| 20260507121601 | 47 | 192 | 5.0 | 14.0 | 0.03 | 0.72 | 0.72 | 96 | 1005.3 |
| 20260507120047 | 48 | 152 | 6.0 | 16.0 | 0.00 | 0.69 | 0.69 | 96 | 1005.6 |
| 20260507114549 | 48 | 177 | 6.0 | 15.0 | 0.00 | 0.68 | 0.68 | 96 | 1005.5 |
| 20260507113052 | 49 | 171 | 6.0 | 11.0 | 0.00 | 0.68 | 0.68 | 96 | 1005.5 |
| 20260507111549 | 49 | 157 | 7.0 | 14.0 | 0.00 | 0.68 | 0.68 | 96 | 1005.2 |
| 20260507110105 | 49 | 180 | 8.0 | 17.0 | 0.00 | 0.68 | 0.68 | 96 | 1005.4 |
| 20260507104548 | 49 | 173 | 6.0 | 16.0 | 0.00 | 0.68 | 0.68 | 96 | 1005.5 |
| 20260507103053 | 49 | 155 | 8.0 | 19.0 | 0.00 | 0.68 | 0.68 | 96 | 1005.7 |
| 20260507101551 | 49 | 148 | 8.0 | 21.0 | 0.00 | 0.68 | 0.68 | 96 | 1005.8 |
| 20260507100051 | 49 | 198 | 9.0 | 21.0 | 0.00 | 0.68 | 0.68 | 96 | 1005.6 |
| 20260507094557 | 49 | 161 | 9.0 | 16.0 | 0.00 | 0.68 | 0.68 | 96 | 1005.6 |
| 20260507093055 | 49 | 183 | 10.0 | 18.0 | 0.00 | 0.67 | 0.67 | 95 | 1005.4 |
| 20260507091608 | 50 | 209 | 9.0 | 22.0 | 0.00 | 0.67 | 0.67 | 96 | 1005.6 |
| 20260507090057 | 50 | 196 | 10.0 | 21.0 | 0.00 | 0.67 | 0.67 | 95 | 1005.8 |
| 20260507084554 | 50 | 166 | 13.0 | 23.0 | 0.00 | 0.67 | 0.67 | 96 | 1005.9 |
| 20260507083050 | 51 | 225 | 10.0 | 26.0 | 0.00 | 0.67 | 0.67 | 96 | 1005.8 |
| 20260507081547 | 51 | 155 | 13.0 | 23.0 | 0.03 | 0.67 | 0.67 | 95 | 1005.8 |
| 20260507080056 | 51 | 155 | 13.0 | 26.0 | 0.04 | 0.67 | 0.67 | 95 | 1005.9 |
| 20260507074547 | 52 | 177 | 15.0 | 28.0 | 0.07 | 0.66 | 0.66 | 95 | 1006.0 |
| 20260507073050 | 52 | 155 | 16.0 | 28.0 | 0.14 | 0.66 | 0.66 | 96 | 1006.1 |
| 20260507071554 | 52 | 184 | 15.0 | 27.0 | 0.25 | 0.64 | 0.64 | 95 | 1006.3 |
| 20260507070059 | 52 | 154 | 16.0 | 33.0 | 0.28 | 0.62 | 0.62 | 96 | 1006.3 |
| 20260507064807 | 51 | 161 | 14.0 | 26.0 | 0.29 | 0.59 | 0.59 | 95 | 1006.4 |
| 20260507063052 | 50 | 121 | 13.0 | 23.0 | 0.29 | 0.51 | 0.51 | 95 | 1006.7 |
| 20260507061551 | 49 | 174 | 13.0 | 25.0 | 0.29 | 0.38 | 0.38 | 95 | 1006.8 |
| 20260507054552 | 50 | 153 | 12.0 | 27.0 | 0.29 | 0.29 | 0.29 | 95 | 1007.1 |
| 20260507053052 | 50 | 156 | 11.0 | 21.0 | 0.21 | 0.21 | 0.21 | 94 | 1007.7 |
| 20260507051546 | 49 | 150 | 14.0 | 25.0 | 0.08 | 0.08 | 0.08 | 94 | 1008.3 |
| 20260507050048 | 50 | 200 | 11.0 | 24.0 | 0.03 | 0.03 | 0.03 | 93 | 1008.7 |
| 20260507044548 | 50 | 171 | 13.0 | 24.0 | 0.00 | 0.00 | 0.00 | 93 | 1008.9 |
| 20260507043048 | 50 | 155 | 11.0 | 22.0 | 0.00 | 0.00 | 0.00 | 93 | 1009.2 |
| 20260507041548 | 50 | 157 | 12.0 | 22.0 | 0.00 | 0.00 | 0.00 | 93 | 1009.5 |
| 20260507040051 | 50 | 161 | 13.0 | 24.0 | 0.00 | 0.00 | 0.00 | 92 | 1009.7 |
| 20260507034557 | 51 | 149 | 12.0 | 21.0 | 0.00 | 0.00 | 0.00 | 93 | 1009.7 |
| 20260507033049 | 50 | 178 | 10.0 | 19.0 | 0.00 | 0.00 | 0.00 | 92 | 1010.0 |
| 20260507031546 | 50 | 161 | 13.0 | 25.0 | 0.00 | 0.00 | 0.00 | 92 | 1010.4 |
| 20260507030052 | 50 | 168 | 14.0 | 25.0 | 0.00 | 0.00 | 0.00 | 92 | 1010.8 |
| 20260507024554 | 50 | 160 | 12.0 | 24.0 | 0.00 | 0.00 | 0.00 | 92 | 1011.2 |
| 20260507023047 | 50 | 155 | 11.0 | 23.0 | 0.00 | 0.00 | 0.00 | 92 | 1011.7 |
| 20260507021551 | 50 | 169 | 13.0 | 23.0 | 0.00 | 0.00 | 0.00 | 92 | 1011.9 |
| 20260507020053 | 51 | 149 | 9.0 | 21.0 | 0.00 | 0.00 | 0.00 | 91 | 1012.2 |
| 20260507014550 | 51 | 160 | 10.0 | 19.0 | 0.00 | 0.00 | 0.00 | 90 | 1012.5 |
| 20260507013046 | 52 | 146 | 9.0 | 20.0 | 0.00 | 0.00 | 0.00 | 89 | 1012.9 |
| 20260507011555 | 54 | 140 | 9.0 | 21.0 | 0.00 | 0.00 | 0.00 | 90 | 1013.0 |
| 20260507010109 | 53 | 164 | 9.0 | 26.0 | 0.00 | 0.00 | 0.00 | 89 | 1013.3 |
| 20260507004553 | 52 | 219 | 10.0 | 24.0 | 0.00 | 0.00 | 0.00 | 90 | 1013.5 |
| 20260507003053 | 52 | 103 | 12.0 | 23.0 | 0.00 | 0.00 | 0.00 | 89 | 1012.3 |
| 20260507001555 | 53 | 169 | 12.0 | 22.0 | 0.00 | 0.00 | 0.00 | 90 | 1013.3 |
| 20260507000059 | 53 | 180 | 12.0 | 23.0 | 0.00 | 0.00 | 0.00 | 89 | 1013.8 |
| 20260506234550 | 53 | 165 | 14.0 | 25.0 | 0.00 | 0.00 | 0.00 | 89 | 1014.0 |
| 20260506233059 | 53 | 183 | 12.0 | 23.0 | 0.00 | 0.00 | 0.00 | 89 | 1014.1 |
| 20260506231551 | 54 | 165 | 13.0 | 25.0 | 0.00 | 0.00 | 0.00 | 89 | 1014.1 |
| 20260506230054 | 54 | 169 | 10.0 | 25.0 | 0.00 | 0.00 | 0.00 | 89 | 1014.0 |
| 20260506224554 | 54 | 143 | 13.0 | 24.0 | 0.00 | 0.00 | 0.00 | 88 | 1014.0 |
| 20260506223058 | 54 | 149 | 14.0 | 25.0 | 0.00 | 0.00 | 0.00 | 89 | 1014.0 |
| 20260506221549 | 54 | 194 | 13.0 | 22.0 | 0.00 | 0.00 | 0.00 | 88 | 1014.2 |
| 20260506220052 | 54 | 161 | 10.0 | 24.0 | 0.00 | 0.00 | 0.00 | 88 | 1014.2 |
| 20260506214556 | 55 | 148 | 14.0 | 24.0 | 0.00 | 0.00 | 0.00 | 87 | 1014.1 |
| 20260506213045 | 55 | 155 | 12.0 | 25.0 | 0.00 | 0.00 | 0.00 | 87 | 1014.2 |
| 20260506211556 | 55 | 183 | 14.0 | 25.0 | 0.00 | 0.00 | 0.00 | 86 | 1014.4 |
| 20260506210052 | 55 | 179 | 12.0 | 26.0 | 0.00 | 0.00 | 0.00 | 87 | 1014.7 |
| 20260506204551 | 55 | 154 | 14.0 | 24.0 | 0.00 | 0.00 | 0.00 | 86 | 1014.7 |
| 20260506203049 | 55 | 154 | 14.0 | 25.0 | 0.00 | 0.00 | 0.00 | 86 | 1014.6 |
| 20260506201550 | 56 | 173 | 13.0 | 22.0 | 0.00 | 0.00 | 0.00 | 84 | 1014.6 |
| 20260506200046 | 55 | 157 | 10.0 | 20.0 | 0.00 | 0.00 | 0.00 | 85 | 1014.7 |
| 20260506194551 | 56 | 187 | 13.0 | 27.0 | 0.00 | 0.00 | 0.00 | 84 | 1014.7 |
| 20260506193049 | 57 | 138 | 12.0 | 26.0 | 0.00 | 0.00 | 0.00 | 83 | 1014.7 |
| 20260506191550 | 58 | 138 | 9.0 | 20.0 | 0.00 | 0.00 | 0.00 | 81 | 1014.5 |
| 20260506190047 | 59 | 157 | 13.0 | 26.0 | 0.00 | 0.00 | 0.00 | 81 | 1014.7 |